Quenemo, Kansas
Current Conditions -  °F | °C
As of 9:53 PM on Sunday 25 Jan 2015 (Local Time) from KFOE Reporting Station
Scattered Clouds Scattered Clouds  
Wind Chill: 33°   Ceiling: Unl
Heat Index: 37°   Visibility: 10mi
Dew Point: 27°   Wind: 5mph
Humidity: 67%   Direction: 350°N
Pressure: 30.1"   Gusts: NA
Location:  38.58°N, 95.53°W
Report Text: KFOE 260353Z 35004KT 10SM SCT033 03/M03 A3010 RMK AO2 SLP200 T00281028
Loading
Personal Weather Stations






























Interactive Weather Map New forecast layout! Learn more

10-Day Weather Forecast

Advertisements
Track Severe Weather on mobile